Bom Principio, Brazil
Current Conditions -  °F | °C
As of 12:00 PM on Thursday 30 Oct 2014 (Local Time) from SBCO Reporting Station
Broken Clouds Broken Clouds  
Wind Chill: 75°   Ceiling: 10000
Heat Index: 75°   Visibility: 6mi
Dew Point: 68°   Wind: 6mph
Humidity: 78%   Direction: 300°WNW
Pressure: 29.8"   Gusts: NA
Location:  29.49°S, 51.35°W
Report Text: SBCO 301400Z 30005KT 9999 FEW030 BKN100 24/20 Q1009
Loading
Personal Weather Stations






























Interactive Weather Map
Tropical Storm Tracking
New forecast layout! Learn more

10-Day Weather Forecast

Advertisements
Track Severe Weather on mobile